sensor_id;sensor_type;location;lat;lon;timestamp;P1;durP1;ratioP1;P2;durP2;ratioP2
60917;SDS011;46792;38.854;-9.384;2022-12-29T00:02:56;15.98;;;3.17;;
60917;SDS011;46792;38.854;-9.384;2022-12-29T00:04:57;18.02;;;2.65;;
60917;SDS011;46792;38.854;-9.384;2022-12-29T00:06:57;21.27;;;3.90;;
60917;SDS011;46792;38.854;-9.384;2022-12-29T00:08:58;25.25;;;4.40;;
60917;SDS011;46792;38.854;-9.384;2022-12-29T00:11:02;30.50;;;4.18;;
60917;SDS011;46792;38.854;-9.384;2022-12-29T00:13:02;30.23;;;4.47;;
60917;SDS011;46792;38.854;-9.384;2022-12-29T00:15:22;21.50;;;4.45;;
60917;SDS011;46792;38.854;-9.384;2022-12-29T00:20:33;26.85;;;4.47;;
60917;SDS011;46792;38.854;-9.384;2022-12-29T00:22:55;28.95;;;3.80;;
60917;SDS011;46792;38.854;-9.384;2022-12-29T00:25:15;25.38;;;4.05;;
60917;SDS011;46792;38.854;-9.384;2022-12-29T00:27:34;24.88;;;5.68;;
60917;SDS011;46792;38.854;-9.384;2022-12-29T00:29:54;22.35;;;4.90;;
60917;SDS011;46792;38.854;-9.384;2022-12-29T00:35:11;24.67;;;4.05;;
60917;SDS011;46792;38.854;-9.384;2022-12-29T00:39:16;23.27;;;4.30;;
60917;SDS011;46792;38.854;-9.384;2022-12-29T00:41:38;26.90;;;4.22;;
60917;SDS011;46792;38.854;-9.384;2022-12-29T00:43:57;22.10;;;5.03;;
60917;SDS011;46792;38.854;-9.384;2022-12-29T00:46:10;24.02;;;4.03;;
60917;SDS011;46792;38.854;-9.384;2022-12-29T00:48:10;19.88;;;4.35;;
60917;SDS011;46792;38.854;-9.384;2022-12-29T00:50:12;26.48;;;4.38;;
60917;SDS011;46792;38.854;-9.384;2022-12-29T00:52:12;26.38;;;3.67;;
60917;SDS011;46792;38.854;-9.384;2022-12-29T00:54:14;22.17;;;4.55;;
60917;SDS011;46792;38.854;-9.384;2022-12-29T00:56:33;21.73;;;4.10;;
60917;SDS011;46792;38.854;-9.384;2022-12-29T00:58:34;20.65;;;3.50;;
60917;SDS011;46792;38.854;-9.384;2022-12-29T01:00:34;24.50;;;3.47;;
60917;SDS011;46792;38.854;-9.384;2022-12-29T01:02:35;25.23;;;3.83;;
60917;SDS011;46792;38.854;-9.384;2022-12-29T01:04:45;28.92;;;3.25;;
60917;SDS011;46792;38.854;-9.384;2022-12-29T01:06:45;34.42;;;3.35;;
60917;SDS011;46792;38.854;-9.384;2022-12-29T01:08:49;17.73;;;3.78;;
60917;SDS011;46792;38.854;-9.384;2022-12-29T01:11:11;26.60;;;3.88;;
60917;SDS011;46792;38.854;-9.384;2022-12-29T01:15:50;23.95;;;3.53;;
60917;SDS011;46792;38.854;-9.384;2022-12-29T01:17:52;16.55;;;2.70;;
60917;SDS011;46792;38.854;-9.384;2022-12-29T01:19:52;18.77;;;2.97;;
60917;SDS011;46792;38.854;-9.384;2022-12-29T01:21:53;13.50;;;2.20;;
60917;SDS011;46792;38.854;-9.384;2022-12-29T01:23:53;11.70;;;2.67;;
60917;SDS011;46792;38.854;-9.384;2022-12-29T01:25:54;12.07;;;2.38;;
60917;SDS011;46792;38.854;-9.384;2022-12-29T01:27:55;21.70;;;2.47;;
60917;SDS011;46792;38.854;-9.384;2022-12-29T01:29:56;20.60;;;2.28;;
60917;SDS011;46792;38.854;-9.384;2022-12-29T01:31:56;12.20;;;1.92;;
60917;SDS011;46792;38.854;-9.384;2022-12-29T01:33:57;6.72;;;1.92;;
60917;SDS011;46792;38.854;-9.384;2022-12-29T01:36:05;15.27;;;1.98;;
60917;SDS011;46792;38.854;-9.384;2022-12-29T01:38:07;18.10;;;3.15;;
60917;SDS011;46792;38.854;-9.384;2022-12-29T01:40:08;9.43;;;2.03;;
60917;SDS011;46792;38.854;-9.384;2022-12-29T01:42:16;14.57;;;3.00;;
60917;SDS011;46792;38.854;-9.384;2022-12-29T01:47:10;13.48;;;2.30;;
60917;SDS011;46792;38.854;-9.384;2022-12-29T01:49:29;13.73;;;2.83;;
60917;SDS011;46792;38.854;-9.384;2022-12-29T01:51:30;9.70;;;2.60;;
60917;SDS011;46792;38.854;-9.384;2022-12-29T01:53:33;17.43;;;2.17;;
60917;SDS011;46792;38.854;-9.384;2022-12-29T01:55:40;20.30;;;2.40;;
60917;SDS011;46792;38.854;-9.384;2022-12-29T01:57:46;21.55;;;3.60;;
60917;SDS011;46792;38.854;-9.384;2022-12-29T01:59:50;17.52;;;3.00;;
60917;SDS011;46792;38.854;-9.384;2022-12-29T02:02:15;14.75;;;3.70;;
60917;SDS011;46792;38.854;-9.384;2022-12-29T02:04:16;19.30;;;2.88;;
60917;SDS011;46792;38.854;-9.384;2022-12-29T02:06:19;9.75;;;3.00;;
60917;SDS011;46792;38.854;-9.384;2022-12-29T02:08:23;16.58;;;3.58;;
60917;SDS011;46792;38.854;-9.384;2022-12-29T02:10:27;17.58;;;2.60;;
60917;SDS011;46792;38.854;-9.384;2022-12-29T02:12:30;14.23;;;3.08;;
60917;SDS011;46792;38.854;-9.384;2022-12-29T02:14:31;21.10;;;3.50;;
60917;SDS011;46792;38.854;-9.384;2022-12-29T02:21:23;14.02;;;3.35;;
60917;SDS011;46792;38.854;-9.384;2022-12-29T02:26:39;25.05;;;4.15;;
60917;SDS011;46792;38.854;-9.384;2022-12-29T02:34:24;16.73;;;2.85;;
60917;SDS011;46792;38.854;-9.384;2022-12-29T02:36:53;18.50;;;3.58;;
60917;SDS011;46792;38.854;-9.384;2022-12-29T02:41:34;18.20;;;3.90;;
60917;SDS011;46792;38.854;-9.384;2022-12-29T02:43:47;19.38;;;2.97;;
60917;SDS011;46792;38.854;-9.384;2022-12-29T02:46:01;10.80;;;2.35;;
60917;SDS011;46792;38.854;-9.384;2022-12-29T02:48:28;12.35;;;2.40;;
60917;SDS011;46792;38.854;-9.384;2022-12-29T02:50:39;17.30;;;3.20;;
60917;SDS011;46792;38.854;-9.384;2022-12-29T02:52:51;16.35;;;2.78;;
60917;SDS011;46792;38.854;-9.384;2022-12-29T02:55:17;13.00;;;3.70;;
60917;SDS011;46792;38.854;-9.384;2022-12-29T03:00:39;19.48;;;3.45;;
60917;SDS011;46792;38.854;-9.384;2022-12-29T03:18:22;6.07;;;1.27;;
60917;SDS011;46792;38.854;-9.384;2022-12-29T03:20:31;5.18;;;1.35;;
60917;SDS011;46792;38.854;-9.384;2022-12-29T03:22:43;4.50;;;1.65;;
60917;SDS011;46792;38.854;-9.384;2022-12-29T03:24:54;7.78;;;1.38;;
60917;SDS011;46792;38.854;-9.384;2022-12-29T03:27:00;7.30;;;1.60;;
60917;SDS011;46792;38.854;-9.384;2022-12-29T03:29:22;8.05;;;1.48;;
60917;SDS011;46792;38.854;-9.384;2022-12-29T03:31:24;11.05;;;2.15;;
60917;SDS011;46792;38.854;-9.384;2022-12-29T03:33:29;11.00;;;2.17;;
60917;SDS011;46792;38.854;-9.384;2022-12-29T03:35:37;8.98;;;2.83;;
60917;SDS011;46792;38.854;-9.384;2022-12-29T03:37:46;5.70;;;1.50;;
60917;SDS011;46792;38.854;-9.384;2022-12-29T03:39:52;7.43;;;1.48;;
60917;SDS011;46792;38.854;-9.384;2022-12-29T03:41:56;7.85;;;1.48;;
60917;SDS011;46792;38.854;-9.384;2022-12-29T03:44:00;3.03;;;1.55;;
60917;SDS011;46792;38.854;-9.384;2022-12-29T03:46:01;2.90;;;1.40;;
60917;SDS011;46792;38.854;-9.384;2022-12-29T03:48:02;2.42;;;1.80;;
60917;SDS011;46792;38.854;-9.384;2022-12-29T03:50:05;9.18;;;1.30;;
60917;SDS011;46792;38.854;-9.384;2022-12-29T03:52:12;8.80;;;1.70;;
60917;SDS011;46792;38.854;-9.384;2022-12-29T03:54:32;10.48;;;1.48;;
60917;SDS011;46792;38.854;-9.384;2022-12-29T03:56:33;7.38;;;1.48;;
60917;SDS011;46792;38.854;-9.384;2022-12-29T03:58:34;14.93;;;2.55;;
60917;SDS011;46792;38.854;-9.384;2022-12-29T04:03:41;3.75;;;1.50;;
60917;SDS011;46792;38.854;-9.384;2022-12-29T04:05:42;5.75;;;1.65;;
60917;SDS011;46792;38.854;-9.384;2022-12-29T04:07:42;5.53;;;1.73;;
60917;SDS011;46792;38.854;-9.384;2022-12-29T04:09:45;7.07;;;1.58;;
60917;SDS011;46792;38.854;-9.384;2022-12-29T04:12:04;11.02;;;1.92;;
60917;SDS011;46792;38.854;-9.384;2022-12-29T04:14:23;10.07;;;1.75;;
60917;SDS011;46792;38.854;-9.384;2022-12-29T04:16:23;10.82;;;2.05;;
60917;SDS011;46792;38.854;-9.384;2022-12-29T04:18:24;14.75;;;1.35;;
60917;SDS011;46792;38.854;-9.384;2022-12-29T04:20:25;16.35;;;3.25;;
60917;SDS011;46792;38.854;-9.384;2022-12-29T04:22:49;9.52;;;2.28;;
60917;SDS011;46792;38.854;-9.384;2022-12-29T04:27:34;14.98;;;2.90;;
60917;SDS011;46792;38.854;-9.384;2022-12-29T04:30:09;21.02;;;3.75;;
60917;SDS011;46792;38.854;-9.384;2022-12-29T04:32:22;15.40;;;2.70;;
60917;SDS011;46792;38.854;-9.384;2022-12-29T04:34:24;15.45;;;3.63;;
60917;SDS011;46792;38.854;-9.384;2022-12-29T04:36:25;16.67;;;3.28;;
60917;SDS011;46792;38.854;-9.384;2022-12-29T04:38:27;19.10;;;2.80;;
60917;SDS011;46792;38.854;-9.384;2022-12-29T04:40:46;21.10;;;3.33;;
60917;SDS011;46792;38.854;-9.384;2022-12-29T04:42:49;16.05;;;3.50;;
60917;SDS011;46792;38.854;-9.384;2022-12-29T04:44:51;23.27;;;3.88;;
60917;SDS011;46792;38.854;-9.384;2022-12-29T04:47:32;13.77;;;2.90;;
60917;SDS011;46792;38.854;-9.384;2022-12-29T04:50:17;17.52;;;3.08;;
60917;SDS011;46792;38.854;-9.384;2022-12-29T04:52:26;18.10;;;3.08;;
60917;SDS011;46792;38.854;-9.384;2022-12-29T04:54:28;29.45;;;3.75;;
60917;SDS011;46792;38.854;-9.384;2022-12-29T04:56:36;20.50;;;3.55;;
60917;SDS011;46792;38.854;-9.384;2022-12-29T04:58:39;22.88;;;4.25;;
60917;SDS011;46792;38.854;-9.384;2022-12-29T05:00:40;32.92;;;3.25;;
60917;SDS011;46792;38.854;-9.384;2022-12-29T05:05:00;16.77;;;2.45;;
60917;SDS011;46792;38.854;-9.384;2022-12-29T05:07:01;25.48;;;3.08;;
60917;SDS011;46792;38.854;-9.384;2022-12-29T05:09:02;14.50;;;2.28;;
60917;SDS011;46792;38.854;-9.384;2022-12-29T05:11:02;13.65;;;2.28;;
60917;SDS011;46792;38.854;-9.384;2022-12-29T05:18:03;5.40;;;1.40;;
60917;SDS011;46792;38.854;-9.384;2022-12-29T05:20:04;7.75;;;1.40;;
60917;SDS011;46792;38.854;-9.384;2022-12-29T05:22:07;5.90;;;1.48;;
60917;SDS011;46792;38.854;-9.384;2022-12-29T05:24:29;7.43;;;2.22;;
60917;SDS011;46792;38.854;-9.384;2022-12-29T05:29:53;10.38;;;1.77;;
60917;SDS011;46792;38.854;-9.384;2022-12-29T05:31:54;7.55;;;1.70;;
60917;SDS011;46792;38.854;-9.384;2022-12-29T05:33:55;6.28;;;1.35;;
60917;SDS011;46792;38.854;-9.384;2022-12-29T05:35:56;8.20;;;2.25;;
60917;SDS011;46792;38.854;-9.384;2022-12-29T05:37:57;9.35;;;1.58;;
60917;SDS011;46792;38.854;-9.384;2022-12-29T05:39:58;7.68;;;1.55;;
60917;SDS011;46792;38.854;-9.384;2022-12-29T05:41:59;16.52;;;2.00;;
60917;SDS011;46792;38.854;-9.384;2022-12-29T05:44:24;11.13;;;3.20;;
60917;SDS011;46792;38.854;-9.384;2022-12-29T05:46:45;13.10;;;2.10;;
60917;SDS011;46792;38.854;-9.384;2022-12-29T05:48:53;15.82;;;2.20;;
60917;SDS011;46792;38.854;-9.384;2022-12-29T05:51:17;10.30;;;1.83;;
60917;SDS011;46792;38.854;-9.384;2022-12-29T05:53:22;6.35;;;2.08;;
60917;SDS011;46792;38.854;-9.384;2022-12-29T05:55:23;12.23;;;2.53;;
60917;SDS011;46792;38.854;-9.384;2022-12-29T05:57:26;11.98;;;2.60;;
60917;SDS011;46792;38.854;-9.384;2022-12-29T05:59:39;11.23;;;2.22;;
60917;SDS011;46792;38.854;-9.384;2022-12-29T06:01:42;15.98;;;3.67;;
60917;SDS011;46792;38.854;-9.384;2022-12-29T06:03:45;10.60;;;2.40;;
60917;SDS011;46792;38.854;-9.384;2022-12-29T06:05:46;11.55;;;2.25;;
60917;SDS011;46792;38.854;-9.384;2022-12-29T06:07:48;16.33;;;2.20;;
60917;SDS011;46792;38.854;-9.384;2022-12-29T06:09:50;20.92;;;2.38;;
60917;SDS011;46792;38.854;-9.384;2022-12-29T06:11:51;14.45;;;4.65;;
60917;SDS011;46792;38.854;-9.384;2022-12-29T06:13:52;14.85;;;2.63;;
60917;SDS011;46792;38.854;-9.384;2022-12-29T06:15:53;13.05;;;2.92;;
60917;SDS011;46792;38.854;-9.384;2022-12-29T06:17:54;19.35;;;2.30;;
60917;SDS011;46792;38.854;-9.384;2022-12-29T06:19:54;10.68;;;2.58;;
60917;SDS011;46792;38.854;-9.384;2022-12-29T06:21:55;17.92;;;3.80;;
60917;SDS011;46792;38.854;-9.384;2022-12-29T06:23:57;14.93;;;2.97;;
60917;SDS011;46792;38.854;-9.384;2022-12-29T06:25:58;12.07;;;2.78;;
60917;SDS011;46792;38.854;-9.384;2022-12-29T06:27:59;10.43;;;2.05;;
60917;SDS011;46792;38.854;-9.384;2022-12-29T06:35:28;16.55;;;2.42;;
60917;SDS011;46792;38.854;-9.384;2022-12-29T06:37:29;11.02;;;2.75;;
60917;SDS011;46792;38.854;-9.384;2022-12-29T06:42:38;12.63;;;2.80;;
60917;SDS011;46792;38.854;-9.384;2022-12-29T06:45:03;17.15;;;2.58;;
60917;SDS011;46792;38.854;-9.384;2022-12-29T06:47:05;14.60;;;2.17;;
60917;SDS011;46792;38.854;-9.384;2022-12-29T06:49:05;14.48;;;2.08;;
60917;SDS011;46792;38.854;-9.384;2022-12-29T06:51:06;13.00;;;2.60;;
60917;SDS011;46792;38.854;-9.384;2022-12-29T06:53:06;6.57;;;1.67;;
60917;SDS011;46792;38.854;-9.384;2022-12-29T06:55:07;9.88;;;1.75;;
60917;SDS011;46792;38.854;-9.384;2022-12-29T06:57:08;10.60;;;1.92;;
60917;SDS011;46792;38.854;-9.384;2022-12-29T07:01:27;8.32;;;1.75;;
60917;SDS011;46792;38.854;-9.384;2022-12-29T07:03:28;10.90;;;1.80;;
60917;SDS011;46792;38.854;-9.384;2022-12-29T07:05:29;16.92;;;3.33;;
60917;SDS011;46792;38.854;-9.384;2022-12-29T07:07:49;10.27;;;1.52;;
60917;SDS011;46792;38.854;-9.384;2022-12-29T07:10:12;7.75;;;2.60;;
60917;SDS011;46792;38.854;-9.384;2022-12-29T07:15:10;14.70;;;2.13;;
60917;SDS011;46792;38.854;-9.384;2022-12-29T07:17:10;8.32;;;1.90;;
60917;SDS011;46792;38.854;-9.384;2022-12-29T07:19:29;11.77;;;2.08;;
60917;SDS011;46792;38.854;-9.384;2022-12-29T07:21:30;3.42;;;1.50;;
60917;SDS011;46792;38.854;-9.384;2022-12-29T07:23:31;10.88;;;2.17;;
60917;SDS011;46792;38.854;-9.384;2022-12-29T07:25:31;14.15;;;2.33;;
60917;SDS011;46792;38.854;-9.384;2022-12-29T07:27:32;9.48;;;1.70;;
60917;SDS011;46792;38.854;-9.384;2022-12-29T07:29:33;8.23;;;2.38;;
60917;SDS011;46792;38.854;-9.384;2022-12-29T07:31:33;5.88;;;2.30;;
60917;SDS011;46792;38.854;-9.384;2022-12-29T07:33:34;12.57;;;2.33;;
60917;SDS011;46792;38.854;-9.384;2022-12-29T07:35:35;13.45;;;1.83;;
60917;SDS011;46792;38.854;-9.384;2022-12-29T07:37:35;13.70;;;2.00;;
60917;SDS011;46792;38.854;-9.384;2022-12-29T07:39:36;13.70;;;2.35;;
60917;SDS011;46792;38.854;-9.384;2022-12-29T07:47:00;6.63;;;1.80;;
60917;SDS011;46792;38.854;-9.384;2022-12-29T07:49:00;11.57;;;1.80;;
60917;SDS011;46792;38.854;-9.384;2022-12-29T07:51:01;13.25;;;3.38;;
60917;SDS011;46792;38.854;-9.384;2022-12-29T07:53:02;22.30;;;2.22;;
60917;SDS011;46792;38.854;-9.384;2022-12-29T07:55:21;18.25;;;2.38;;
60917;SDS011;46792;38.854;-9.384;2022-12-29T07:57:41;19.75;;;1.98;;
60917;SDS011;46792;38.854;-9.384;2022-12-29T07:59:41;6.38;;;1.70;;
60917;SDS011;46792;38.854;-9.384;2022-12-29T08:01:42;12.05;;;1.92;;
60917;SDS011;46792;38.854;-9.384;2022-12-29T08:03:42;13.00;;;1.95;;
60917;SDS011;46792;38.854;-9.384;2022-12-29T08:05:43;20.70;;;2.53;;
60917;SDS011;46792;38.854;-9.384;2022-12-29T08:07:44;22.83;;;2.28;;
60917;SDS011;46792;38.854;-9.384;2022-12-29T08:09:45;21.45;;;2.97;;
60917;SDS011;46792;38.854;-9.384;2022-12-29T08:11:46;12.60;;;1.75;;
60917;SDS011;46792;38.854;-9.384;2022-12-29T08:13:47;11.25;;;2.55;;
60917;SDS011;46792;38.854;-9.384;2022-12-29T08:15:47;9.43;;;2.05;;
60917;SDS011;46792;38.854;-9.384;2022-12-29T08:18:09;21.17;;;3.63;;
60917;SDS011;46792;38.854;-9.384;2022-12-29T08:20:28;12.20;;;2.33;;
60917;SDS011;46792;38.854;-9.384;2022-12-29T08:22:29;12.98;;;2.47;;
60917;SDS011;46792;38.854;-9.384;2022-12-29T08:24:30;30.52;;;3.47;;
60917;SDS011;46792;38.854;-9.384;2022-12-29T08:26:30;14.70;;;2.50;;
60917;SDS011;46792;38.854;-9.384;2022-12-29T08:31:09;22.80;;;3.35;;
60917;SDS011;46792;38.854;-9.384;2022-12-29T08:33:10;23.65;;;2.97;;
60917;SDS011;46792;38.854;-9.384;2022-12-29T08:35:11;22.33;;;2.90;;
60917;SDS011;46792;38.854;-9.384;2022-12-29T08:37:12;15.35;;;2.25;;
60917;SDS011;46792;38.854;-9.384;2022-12-29T08:39:13;14.18;;;2.60;;
60917;SDS011;46792;38.854;-9.384;2022-12-29T08:41:13;11.95;;;2.97;;
60917;SDS011;46792;38.854;-9.384;2022-12-29T08:43:14;22.67;;;2.30;;
60917;SDS011;46792;38.854;-9.384;2022-12-29T08:45:34;21.25;;;2.08;;
60917;SDS011;46792;38.854;-9.384;2022-12-29T08:47:35;41.30;;;4.88;;
60917;SDS011;46792;38.854;-9.384;2022-12-29T08:49:36;28.42;;;2.42;;
60917;SDS011;46792;38.854;-9.384;2022-12-29T08:51:37;19.55;;;2.70;;
60917;SDS011;46792;38.854;-9.384;2022-12-29T08:53:38;13.25;;;3.03;;
60917;SDS011;46792;38.854;-9.384;2022-12-29T08:55:39;17.98;;;2.65;;
60917;SDS011;46792;38.854;-9.384;2022-12-29T08:57:40;14.60;;;2.72;;
60917;SDS011;46792;38.854;-9.384;2022-12-29T09:00:07;19.67;;;2.70;;
60917;SDS011;46792;38.854;-9.384;2022-12-29T09:02:10;27.00;;;3.17;;
60917;SDS011;46792;38.854;-9.384;2022-12-29T09:04:12;18.07;;;3.80;;
60917;SDS011;46792;38.854;-9.384;2022-12-29T09:06:12;18.70;;;5.18;;
60917;SDS011;46792;38.854;-9.384;2022-12-29T09:08:14;21.83;;;7.82;;
60917;SDS011;46792;38.854;-9.384;2022-12-29T09:10:15;19.23;;;4.43;;
60917;SDS011;46792;38.854;-9.384;2022-12-29T09:12:16;30.65;;;10.95;;
60917;SDS011;46792;38.854;-9.384;2022-12-29T09:14:18;25.95;;;8.55;;
60917;SDS011;46792;38.854;-9.384;2022-12-29T09:16:20;23.75;;;6.22;;
60917;SDS011;46792;38.854;-9.384;2022-12-29T09:18:40;22.95;;;4.50;;
60917;SDS011;46792;38.854;-9.384;2022-12-29T09:21:02;16.92;;;2.92;;
60917;SDS011;46792;38.854;-9.384;2022-12-29T09:25:06;14.52;;;3.30;;
60917;SDS011;46792;38.854;-9.384;2022-12-29T09:27:14;12.75;;;2.60;;
60917;SDS011;46792;38.854;-9.384;2022-12-29T09:29:14;26.73;;;3.10;;
60917;SDS011;46792;38.854;-9.384;2022-12-29T09:31:18;15.85;;;3.53;;
60917;SDS011;46792;38.854;-9.384;2022-12-29T09:33:37;21.55;;;3.33;;
60917;SDS011;46792;38.854;-9.384;2022-12-29T09:35:42;8.23;;;2.38;;
60917;SDS011;46792;38.854;-9.384;2022-12-29T09:38:08;17.92;;;2.60;;
60917;SDS011;46792;38.854;-9.384;2022-12-29T09:40:30;29.48;;;3.83;;
60917;SDS011;46792;38.854;-9.384;2022-12-29T09:42:44;14.32;;;2.30;;
60917;SDS011;46792;38.854;-9.384;2022-12-29T09:47:14;20.42;;;2.97;;
60917;SDS011;46792;38.854;-9.384;2022-12-29T09:51:29;16.60;;;2.50;;
60917;SDS011;46792;38.854;-9.384;2022-12-29T09:53:35;15.35;;;2.72;;
60917;SDS011;46792;38.854;-9.384;2022-12-29T09:55:39;20.67;;;3.75;;
60917;SDS011;46792;38.854;-9.384;2022-12-29T09:57:47;9.13;;;2.72;;
60917;SDS011;46792;38.854;-9.384;2022-12-29T09:59:57;29.52;;;2.83;;
60917;SDS011;46792;38.854;-9.384;2022-12-29T10:02:16;22.00;;;2.83;;
60917;SDS011;46792;38.854;-9.384;2022-12-29T10:04:20;23.60;;;4.57;;
60917;SDS011;46792;38.854;-9.384;2022-12-29T10:21:44;22.02;;;3.13;;
60917;SDS011;46792;38.854;-9.384;2022-12-29T10:23:49;17.45;;;4.22;;
60917;SDS011;46792;38.854;-9.384;2022-12-29T10:25:53;27.05;;;2.83;;
60917;SDS011;46792;38.854;-9.384;2022-12-29T10:30:19;20.08;;;2.92;;
60917;SDS011;46792;38.854;-9.384;2022-12-29T10:32:55;15.82;;;3.15;;
60917;SDS011;46792;38.854;-9.384;2022-12-29T10:35:00;19.73;;;2.78;;
60917;SDS011;46792;38.854;-9.384;2022-12-29T10:40:32;17.50;;;2.15;;
60917;SDS011;46792;38.854;-9.384;2022-12-29T10:42:34;18.40;;;2.72;;
60917;SDS011;46792;38.854;-9.384;2022-12-29T10:44:56;20.50;;;2.75;;
60917;SDS011;46792;38.854;-9.384;2022-12-29T10:46:59;21.75;;;3.97;;
60917;SDS011;46792;38.854;-9.384;2022-12-29T10:49:06;27.67;;;3.80;;
60917;SDS011;46792;38.854;-9.384;2022-12-29T10:51:21;20.88;;;3.22;;
60917;SDS011;46792;38.854;-9.384;2022-12-29T10:53:25;28.77;;;3.67;;
60917;SDS011;46792;38.854;-9.384;2022-12-29T10:55:36;23.80;;;3.55;;
60917;SDS011;46792;38.854;-9.384;2022-12-29T10:57:43;22.40;;;3.10;;
60917;SDS011;46792;38.854;-9.384;2022-12-29T10:59:45;33.08;;;4.63;;
60917;SDS011;46792;38.854;-9.384;2022-12-29T11:04:33;31.33;;;3.90;;
60917;SDS011;46792;38.854;-9.384;2022-12-29T11:06:35;18.27;;;3.58;;
60917;SDS011;46792;38.854;-9.384;2022-12-29T11:09:21;23.25;;;3.30;;
60917;SDS011;46792;38.854;-9.384;2022-12-29T11:11:04;17.55;;;2.88;;
60917;SDS011;46792;38.854;-9.384;2022-12-29T11:13:16;22.02;;;3.13;;
60917;SDS011;46792;38.854;-9.384;2022-12-29T11:15:25;20.73;;;2.70;;
60917;SDS011;46792;38.854;-9.384;2022-12-29T11:17:26;25.15;;;3.28;;
60917;SDS011;46792;38.854;-9.384;2022-12-29T11:19:28;20.40;;;2.60;;
60917;SDS011;46792;38.854;-9.384;2022-12-29T11:21:34;23.13;;;3.03;;
60917;SDS011;46792;38.854;-9.384;2022-12-29T11:23:41;23.42;;;2.88;;
60917;SDS011;46792;38.854;-9.384;2022-12-29T11:25:42;20.55;;;2.80;;
60917;SDS011;46792;38.854;-9.384;2022-12-29T11:27:51;22.55;;;3.30;;
60917;SDS011;46792;38.854;-9.384;2022-12-29T11:30:22;27.35;;;3.58;;
60917;SDS011;46792;38.854;-9.384;2022-12-29T11:32:27;19.15;;;3.10;;
60917;SDS011;46792;38.854;-9.384;2022-12-29T11:34:32;16.48;;;2.55;;
60917;SDS011;46792;38.854;-9.384;2022-12-29T11:36:34;12.43;;;2.50;;
60917;SDS011;46792;38.854;-9.384;2022-12-29T11:38:39;19.20;;;2.53;;
60917;SDS011;46792;38.854;-9.384;2022-12-29T11:40:42;31.50;;;3.88;;
60917;SDS011;46792;38.854;-9.384;2022-12-29T11:42:59;22.83;;;3.33;;
60917;SDS011;46792;38.854;-9.384;2022-12-29T11:45:05;17.60;;;3.45;;
60917;SDS011;46792;38.854;-9.384;2022-12-29T11:47:33;26.17;;;3.65;;
60917;SDS011;46792;38.854;-9.384;2022-12-29T11:49:37;12.52;;;2.70;;
60917;SDS011;46792;38.854;-9.384;2022-12-29T11:51:43;28.35;;;4.00;;
60917;SDS011;46792;38.854;-9.384;2022-12-29T11:53:46;15.43;;;3.25;;
60917;SDS011;46792;38.854;-9.384;2022-12-29T11:57:55;16.42;;;3.20;;
60917;SDS011;46792;38.854;-9.384;2022-12-29T11:59:58;23.35;;;3.40;;
60917;SDS011;46792;38.854;-9.384;2022-12-29T12:04:51;28.17;;;3.47;;
60917;SDS011;46792;38.854;-9.384;2022-12-29T12:07:11;29.95;;;3.90;;
60917;SDS011;46792;38.854;-9.384;2022-12-29T12:09:35;18.00;;;3.00;;
60917;SDS011;46792;38.854;-9.384;2022-12-29T12:11:40;17.80;;;3.15;;
60917;SDS011;46792;38.854;-9.384;2022-12-29T12:14:20;18.27;;;4.03;;
60917;SDS011;46792;38.854;-9.384;2022-12-29T12:19:14;23.45;;;4.32;;
60917;SDS011;46792;38.854;-9.384;2022-12-29T12:21:40;17.60;;;3.22;;
60917;SDS011;46792;38.854;-9.384;2022-12-29T12:28:08;18.85;;;3.05;;
60917;SDS011;46792;38.854;-9.384;2022-12-29T12:30:48;24.67;;;2.95;;
60917;SDS011;46792;38.854;-9.384;2022-12-29T12:32:58;21.60;;;2.65;;
60917;SDS011;46792;38.854;-9.384;2022-12-29T12:35:04;25.27;;;3.78;;
60917;SDS011;46792;38.854;-9.384;2022-12-29T12:39:22;23.10;;;3.33;;
60917;SDS011;46792;38.854;-9.384;2022-12-29T12:43:49;30.15;;;3.10;;
60917;SDS011;46792;38.854;-9.384;2022-12-29T12:50:58;20.08;;;3.28;;
60917;SDS011;46792;38.854;-9.384;2022-12-29T12:57:45;24.60;;;3.60;;
60917;SDS011;46792;38.854;-9.384;2022-12-29T12:59:52;28.38;;;4.15;;
60917;SDS011;46792;38.854;-9.384;2022-12-29T13:04:43;31.05;;;3.45;;
60917;SDS011;46792;38.854;-9.384;2022-12-29T13:07:04;23.98;;;3.40;;
60917;SDS011;46792;38.854;-9.384;2022-12-29T13:13:50;34.75;;;3.47;;
60917;SDS011;46792;38.854;-9.384;2022-12-29T13:15:56;22.60;;;5.80;;
60917;SDS011;46792;38.854;-9.384;2022-12-29T13:30:20;34.30;;;4.70;;
60917;SDS011;46792;38.854;-9.384;2022-12-29T13:34:45;33.20;;;5.22;;
60917;SDS011;46792;38.854;-9.384;2022-12-29T13:37:00;25.50;;;4.13;;
60917;SDS011;46792;38.854;-9.384;2022-12-29T13:39:15;33.13;;;5.55;;
60917;SDS011;46792;38.854;-9.384;2022-12-29T13:41:33;26.00;;;4.45;;
60917;SDS011;46792;38.854;-9.384;2022-12-29T13:43:43;28.27;;;4.03;;
60917;SDS011;46792;38.854;-9.384;2022-12-29T13:45:48;28.02;;;3.78;;
60917;SDS011;46792;38.854;-9.384;2022-12-29T13:50:02;35.53;;;3.67;;
60917;SDS011;46792;38.854;-9.384;2022-12-29T13:52:17;26.70;;;6.32;;
60917;SDS011;46792;38.854;-9.384;2022-12-29T13:56:40;28.83;;;3.45;;
60917;SDS011;46792;38.854;-9.384;2022-12-29T14:06:15;35.90;;;3.95;;
60917;SDS011;46792;38.854;-9.384;2022-12-29T14:08:26;22.90;;;3.95;;
60917;SDS011;46792;38.854;-9.384;2022-12-29T14:10:32;24.52;;;3.90;;
60917;SDS011;46792;38.854;-9.384;2022-12-29T14:12:40;19.40;;;3.40;;
60917;SDS011;46792;38.854;-9.384;2022-12-29T14:14:43;30.10;;;4.43;;
60917;SDS011;46792;38.854;-9.384;2022-12-29T14:16:43;25.45;;;3.20;;
60917;SDS011;46792;38.854;-9.384;2022-12-29T14:33:30;18.80;;;3.95;;
60917;SDS011;46792;38.854;-9.384;2022-12-29T14:35:39;34.10;;;5.07;;
60917;SDS011;46792;38.854;-9.384;2022-12-29T14:37:46;31.08;;;3.83;;
60917;SDS011;46792;38.854;-9.384;2022-12-29T14:39:46;40.78;;;5.57;;
60917;SDS011;46792;38.854;-9.384;2022-12-29T14:41:47;34.83;;;4.28;;
60917;SDS011;46792;38.854;-9.384;2022-12-29T14:43:52;29.45;;;4.05;;
60917;SDS011;46792;38.854;-9.384;2022-12-29T14:46:12;35.10;;;4.22;;
60917;SDS011;46792;38.854;-9.384;2022-12-29T14:50:41;21.75;;;3.28;;
60917;SDS011;46792;38.854;-9.384;2022-12-29T14:52:47;24.67;;;3.83;;
60917;SDS011;46792;38.854;-9.384;2022-12-29T14:55:37;30.88;;;4.20;;
60917;SDS011;46792;38.854;-9.384;2022-12-29T14:57:34;27.10;;;3.58;;
60917;SDS011;46792;38.854;-9.384;2022-12-29T14:59:41;19.95;;;3.60;;
60917;SDS011;46792;38.854;-9.384;2022-12-29T15:05:22;29.35;;;4.70;;
60917;SDS011;46792;38.854;-9.384;2022-12-29T15:07:37;25.13;;;4.00;;
60917;SDS011;46792;38.854;-9.384;2022-12-29T15:09:44;30.65;;;5.72;;
60917;SDS011;46792;38.854;-9.384;2022-12-29T15:11:52;18.65;;;3.80;;
60917;SDS011;46792;38.854;-9.384;2022-12-29T15:14:01;24.25;;;3.47;;
60917;SDS011;46792;38.854;-9.384;2022-12-29T15:16:02;30.52;;;5.32;;
60917;SDS011;46792;38.854;-9.384;2022-12-29T15:18:14;33.17;;;4.40;;
60917;SDS011;46792;38.854;-9.384;2022-12-29T15:20:29;35.30;;;4.55;;
60917;SDS011;46792;38.854;-9.384;2022-12-29T15:22:54;29.27;;;3.72;;
60917;SDS011;46792;38.854;-9.384;2022-12-29T15:25:25;33.95;;;4.18;;
60917;SDS011;46792;38.854;-9.384;2022-12-29T15:27:26;22.20;;;3.33;;
60917;SDS011;46792;38.854;-9.384;2022-12-29T15:31:45;37.70;;;5.05;;
60917;SDS011;46792;38.854;-9.384;2022-12-29T15:33:48;24.45;;;3.88;;
60917;SDS011;46792;38.854;-9.384;2022-12-29T15:35:51;21.70;;;3.15;;
60917;SDS011;46792;38.854;-9.384;2022-12-29T15:38:13;21.77;;;3.80;;
60917;SDS011;46792;38.854;-9.384;2022-12-29T15:40:29;29.58;;;3.90;;
60917;SDS011;46792;38.854;-9.384;2022-12-29T15:42:52;25.83;;;3.05;;
60917;SDS011;46792;38.854;-9.384;2022-12-29T15:45:04;24.52;;;4.15;;
60917;SDS011;46792;38.854;-9.384;2022-12-29T15:47:17;22.30;;;4.65;;
60917;SDS011;46792;38.854;-9.384;2022-12-29T15:49:28;26.27;;;3.60;;